Station Historical Data
Daily Summary for March 29, 2017 Units:  Both    English   Metric
« Previous Day
Next Day »
Daily Weekly Monthly Yearly Custom
  High: Low: Average:
Temperature: 82.8 °F /  28.2 °C 54.6 °F /  12.6 °C 68.6 °F /  20.3 °C
Dew Point: 58.1 °F /  14.5 °C 52.3 °F /  11.3 °C 55 °F /  12.8 °C
Humidity: 92% 40% 65%
Wind Speed: 2.0mph /  3.2km/h - 0.1mph /  0.2km/h
Wind Gust: 5.0mph /  8km/h - -
Wind- - SSW
Pressure: 30.07 in /  1018.2 hPa 29.96 in /  1014.4 hPa -
Precipitation: 0.00 in /  0 mm    
Historical Graphs
 
 
Tabular Data for March 29, 2017
Time Temperature Dew Point Pressure Wind Wind Speed Wind Gust Humidity Rainfall Rate (Hourly) solar Conditions
00:00 62.2 °F /  16.8 °C 54.5 °F /  12.5 °C 30.01in /  1016.1hPa Calm     76% 0.00in /  0mm 0.0 W/m2 RA
00:15 62.4 °F /  16.9 °C 54.7 °F /  12.6 °C 30.01in /  1016.1hPa Calm     76% 0.00in /  0mm 0.0 W/m2 SCT
00:30 62.4 °F /  16.9 °C 54.4 °F /  12.4 °C 30.01in /  1016.1hPa Calm     75% 0.00in /  0mm 0.0 W/m2 SCT
00:45 62.3 °F /  16.8 °C 54.3 °F /  12.4 °C 30.01in /  1016.1hPa Calm   1.0mph /  1.6km/h 75% 0.00in /  0mm 0.0 W/m2 SCT
01:00 62.6 °F /  17 °C 53.8 °F /  12.1 °C 30.01in /  1016.1hPa Calm     73% 0.00in /  0mm 0.0 W/m2 SCT
01:15 62.4 °F /  16.9 °C 54.0 °F /  12.2 °C 30.01in /  1016.1hPa Calm     74% 0.00in /  0mm 0.0 W/m2 SCT
01:30 61.7 °F /  16.5 °C 53.7 °F /  12.1 °C 30.01in /  1016.1hPa Calm     75% 0.00in /  0mm 0.0 W/m2 SCT
01:45 61.0 °F /  16.1 °C 53.8 °F /  12.1 °C 30.02in /  1016.5hPa Calm     77% 0.00in /  0mm 0.0 W/m2 SCT
02:00 60.4 °F /  15.8 °C 53.5 °F /  11.9 °C 30.01in /  1016.1hPa Calm     78% 0.00in /  0mm 0.0 W/m2 SCT
02:15 59.8 °F /  15.4 °C 53.6 °F /  12 °C 30.01in /  1016.1hPa Calm   1.0mph /  1.6km/h 80% 0.00in /  0mm 0.0 W/m2 SCT
02:30 59.1 °F /  15.1 °C 53.2 °F /  11.8 °C 30.01in /  1016.1hPa Calm     81% 0.00in /  0mm 0.0 W/m2 SCT
02:45 58.0 °F /  14.4 °C 52.9 °F /  11.6 °C 30.01in /  1016.1hPa Calm     83% 0.00in /  0mm 0.0 W/m2 SCT
03:00 57.9 °F /  14.4 °C 52.8 °F /  11.6 °C 30.00in /  1015.8hPa Calm     83% 0.00in /  0mm 0.0 W/m2 SCT
03:15 57.9 °F /  14.4 °C 52.8 °F /  11.6 °C 30.00in /  1015.8hPa Calm     83% 0.00in /  0mm 0.0 W/m2 SCT
03:30 57.9 °F /  14.4 °C 52.8 °F /  11.6 °C 30.00in /  1015.8hPa Calm     83% 0.00in /  0mm 0.0 W/m2 SCT
03:45 57.9 °F /  14.4 °C 52.8 °F /  11.6 °C 30.00in /  1015.8hPa Calm     83% 0.00in /  0mm 0.0 W/m2 SCT
04:00 57.9 °F /  14.4 °C 52.8 °F /  11.6 °C 30.00in /  1015.8hPa Calm     83% 0.00in /  0mm 0.0 W/m2 SCT
04:15 57.9 °F /  14.4 °C 52.8 °F /  11.6 °C 29.99in /  1015.5hPa Calm     83% 0.00in /  0mm 0.0 W/m2 SCT
04:30 57.9 °F /  14.4 °C 52.8 °F /  11.6 °C 30.00in /  1015.8hPa Calm     83% 0.00in /  0mm 0.0 W/m2 SCT
04:45 57.9 °F /  14.4 °C 52.8 °F /  11.6 °C 30.00in /  1015.8hPa Calm     83% 0.00in /  0mm 0.0 W/m2 SCT
05:00 57.9 °F /  14.4 °C 52.8 °F /  11.6 °C 30.00in /  1015.8hPa Calm     83% 0.00in /  0mm 0.0 W/m2 SCT
05:15 57.9 °F /  14.4 °C 52.8 °F /  11.6 °C 30.00in /  1015.8hPa Calm     83% 0.00in /  0mm 0.0 W/m2 SCT
05:30 57.9 °F /  14.4 °C 52.8 °F /  11.6 °C 30.00in /  1015.8hPa Calm     83% 0.00in /  0mm 0.0 W/m2 SCT
05:45 57.9 °F /  14.4 °C 52.8 °F /  11.6 °C 30.00in /  1015.8hPa Calm     83% 0.00in /  0mm 0.0 W/m2 SCT
06:00 57.9 °F /  14.4 °C 52.8 °F /  11.6 °C 30.00in /  1015.8hPa Calm     83% 0.00in /  0mm 0.0 W/m2 SCT
06:15 57.9 °F /  14.4 °C 52.8 °F /  11.6 °C 30.00in /  1015.8hPa Calm     83% 0.00in /  0mm 0.0 W/m2 SCT
06:30 57.9 °F /  14.4 °C 52.8 °F /  11.6 °C 30.01in /  1016.1hPa Calm     83% 0.00in /  0mm 0.0 W/m2 SCT
06:45 57.9 °F /  14.4 °C 52.8 °F /  11.6 °C 30.01in /  1016.1hPa Calm     83% 0.00in /  0mm 0.0 W/m2 SCT
07:00 57.9 °F /  14.4 °C 52.8 °F /  11.6 °C 30.02in /  1016.5hPa Calm     83% 0.00in /  0mm 0.0 W/m2 SCT
07:15 57.9 °F /  14.4 °C 52.8 °F /  11.6 °C 30.02in /  1016.5hPa Calm     83% 0.00in /  0mm 0.0 W/m2 SCT
07:30 57.9 °F /  14.4 °C 52.8 °F /  11.6 °C 30.02in /  1016.5hPa Calm     83% 0.00in /  0mm 0.0 W/m2 SCT
07:45 57.9 °F /  14.4 °C 52.8 °F /  11.6 °C 30.03in /  1016.8hPa Calm     83% 0.00in /  0mm 0.0 W/m2 SCT
08:00 57.9 °F /  14.4 °C 52.8 °F /  11.6 °C 30.03in /  1016.8hPa Calm     83% 0.00in /  0mm 0.0 W/m2 SCT
08:15 54.6 °F /  12.6 °C 52.3 °F /  11.3 °C 30.04in /  1017.2hPa Calm     92% 0.00in /  0mm 0.0 W/m2 SCT
08:30 55.8 °F /  13.2 °C 53.5 °F /  11.9 °C 30.05in /  1017.5hPa Calm     92% 0.00in /  0mm 0.0 W/m2 SCT
08:45 56.9 °F /  13.8 °C 54.3 °F /  12.4 °C 30.05in /  1017.5hPa Calm     91% 0.00in /  0mm 0.0 W/m2 SCT
09:00 58.0 °F /  14.4 °C 54.8 °F /  12.7 °C 30.06in /  1017.8hPa Calm     89% 0.00in /  0mm 0.0 W/m2 SCT
09:15 59.8 °F /  15.4 °C 54.6 °F /  12.6 °C 30.06in /  1017.8hPa Calm     83% 0.00in /  0mm 0.0 W/m2 SCT
09:30 61.0 °F /  16.1 °C 54.8 °F /  12.7 °C 30.06in /  1017.8hPa Calm     80% 0.00in /  0mm 0.0 W/m2 SCT
09:45 61.9 °F /  16.6 °C 54.9 °F /  12.7 °C 30.06in /  1017.8hPa Calm     78% 0.00in /  0mm 0.0 W/m2 SCT
10:00 63.5 °F /  17.5 °C 55.1 °F /  12.8 °C 30.06in /  1017.8hPa Calm   2.0mph /  3.2km/h 74% 0.00in /  0mm 0.0 W/m2 SCT
10:15 65.3 °F /  18.5 °C 55.7 °F /  13.2 °C 30.06in /  1017.8hPa Calm   2.0mph /  3.2km/h 71% 0.00in /  0mm 0.0 W/m2 SCT
10:30 67.5 °F /  19.7 °C 55.7 °F /  13.2 °C 30.07in /  1018.2hPa Calm   2.0mph /  3.2km/h 66% 0.00in /  0mm 0.0 W/m2 SCT
10:45 69.7 °F /  20.9 °C 57.0 °F /  13.9 °C 30.07in /  1018.2hPa Calm   2.0mph /  3.2km/h 64% 0.00in /  0mm 0.0 W/m2 SCT
11:00 72.2 °F /  22.3 °C 56.1 °F /  13.4 °C 30.07in /  1018.2hPa Calm   3.0mph /  4.8km/h 57% 0.00in /  0mm 0.0 W/m2 SCT
11:15 73.6 °F /  23.1 °C 55.9 °F /  13.3 °C 30.07in /  1018.2hPa Calm   3.0mph /  4.8km/h 54% 0.00in /  0mm 0.0 W/m2 SCT
11:30 74.2 °F /  23.4 °C 55.9 °F /  13.3 °C 30.07in /  1018.2hPa Calm   3.0mph /  4.8km/h 53% 0.00in /  0mm 0.0 W/m2 SCT
11:45 75.4 °F /  24.1 °C 54.9 °F /  12.7 °C 30.07in /  1018.2hPa West 1.0mph /  1.6km/h 5.0mph /  8km/h 49% 0.00in /  0mm 0.0 W/m2 SCT
12:00 76.6 °F /  24.8 °C 56.6 °F /  13.7 °C 30.06in /  1017.8hPa Calm   2.0mph /  3.2km/h 50% 0.00in /  0mm 0.0 W/m2 SCT
12:15 78.8 °F /  26 °C 55.7 °F /  13.2 °C 30.06in /  1017.8hPa Calm   2.0mph /  3.2km/h 45% 0.00in /  0mm 0.0 W/m2 SCT
12:30 78.8 °F /  26 °C 56.3 °F /  13.5 °C 30.06in /  1017.8hPa WNW 1.0mph /  1.6km/h 5.0mph /  8km/h 46% 0.00in /  0mm 0.0 W/m2 SCT
12:45 79.1 °F /  26.2 °C 56.5 °F /  13.6 °C 30.05in /  1017.5hPa West 1.0mph /  1.6km/h 3.0mph /  4.8km/h 46% 0.00in /  0mm 0.0 W/m2 SCT
13:00 80.4 °F /  26.9 °C 57.1 °F /  13.9 °C 30.05in /  1017.5hPa Calm   2.0mph /  3.2km/h 45% 0.00in /  0mm 0.0 W/m2 SCT
13:15 80.9 °F /  27.2 °C 56.3 °F /  13.5 °C 30.04in /  1017.2hPa NW 1.0mph /  1.6km/h 3.0mph /  4.8km/h 43% 0.00in /  0mm 0.0 W/m2 SCT
13:30 81.9 °F /  27.7 °C 57.2 °F /  14 °C 30.03in /  1016.8hPa SSW 1.0mph /  1.6km/h 3.0mph /  4.8km/h 43% 0.00in /  0mm 0.0 W/m2 SCT
13:45 81.9 °F /  27.7 °C 57.8 °F /  14.3 °C 30.03in /  1016.8hPa SSE 1.0mph /  1.6km/h 3.0mph /  4.8km/h 44% 0.00in /  0mm 0.0 W/m2 SCT
14:00 82.8 °F /  28.2 °C 56.0 °F /  13.3 °C 30.03in /  1016.8hPa WSW 1.0mph /  1.6km/h 3.0mph /  4.8km/h 40% 0.00in /  0mm 0.0 W/m2 SCT
14:15 81.5 °F /  27.5 °C 55.6 °F /  13.1 °C 30.03in /  1016.8hPa ESE 1.0mph /  1.6km/h 5.0mph /  8km/h 41% 0.00in /  0mm 0.0 W/m2 SCT
14:30 81.6 °F /  27.6 °C 56.3 °F /  13.5 °C 30.03in /  1016.8hPa Calm   5.0mph /  8km/h 42% 0.00in /  0mm 0.0 W/m2 SCT
14:45 81.6 °F /  27.6 °C 57.6 °F /  14.2 °C 30.03in /  1016.8hPa Calm   5.0mph /  8km/h 44% 0.00in /  0mm 0.0 W/m2 SCT
15:00 80.2 °F /  26.8 °C 56.3 °F /  13.5 °C 30.03in /  1016.8hPa NE 1.0mph /  1.6km/h 5.0mph /  8km/h 44% 0.00in /  0mm 0.0 W/m2 SCT
15:15 79.3 °F /  26.3 °C 55.5 °F /  13.1 °C 30.03in /  1016.8hPa South 2.0mph /  3.2km/h 5.0mph /  8km/h 44% 0.00in /  0mm 0.0 W/m2 SCT
15:30 78.8 °F /  26 °C 55.0 °F /  12.8 °C 30.02in /  1016.5hPa Calm   3.0mph /  4.8km/h 44% 0.00in /  0mm 0.0 W/m2 SCT
15:45 79.7 °F /  26.5 °C 55.2 °F /  12.9 °C 30.01in /  1016.1hPa Calm   5.0mph /  8km/h 43% 0.00in /  0mm 0.0 W/m2 SCT
16:00 79.9 °F /  26.6 °C 56.7 °F /  13.7 °C 30.01in /  1016.1hPa Calm   1.0mph /  1.6km/h 45% 0.00in /  0mm 0.0 W/m2 SCT
16:15 80.5 °F /  26.9 °C 55.3 °F /  12.9 °C 30.00in /  1015.8hPa Calm   3.0mph /  4.8km/h 42% 0.00in /  0mm 0.0 W/m2 SCT
16:30 80.5 °F /  26.9 °C 54.6 °F /  12.6 °C 30.00in /  1015.8hPa Calm   3.0mph /  4.8km/h 41% 0.00in /  0mm 0.0 W/m2 SCT
16:45 80.3 °F /  26.8 °C 55.1 °F /  12.8 °C 30.00in /  1015.8hPa Calm   2.0mph /  3.2km/h 42% 0.00in /  0mm 0.0 W/m2 SCT
17:00 80.1 °F /  26.7 °C 56.2 °F /  13.4 °C 29.99in /  1015.5hPa Calm   2.0mph /  3.2km/h 44% 0.00in /  0mm 0.0 W/m2 SCT
17:15 79.9 °F /  26.6 °C 55.4 °F /  13 °C 29.98in /  1015.1hPa South 1.0mph /  1.6km/h 2.0mph /  3.2km/h 43% 0.00in /  0mm 0.0 W/m2 SCT
17:30 79.6 °F /  26.4 °C 55.1 °F /  12.8 °C 29.98in /  1015.1hPa Calm   1.0mph /  1.6km/h 43% 0.00in /  0mm 0.0 W/m2 SCT
17:45 79.5 °F /  26.4 °C 55.0 °F /  12.8 °C 29.98in /  1015.1hPa Calm   1.0mph /  1.6km/h 43% 0.00in /  0mm 0.0 W/m2 SCT
18:00 79.6 °F /  26.4 °C 55.8 °F /  13.2 °C 29.97in /  1014.8hPa Calm   1.0mph /  1.6km/h 44% 0.00in /  0mm 0.0 W/m2 SCT
18:15 79.5 °F /  26.4 °C 56.3 °F /  13.5 °C 29.97in /  1014.8hPa Calm   1.0mph /  1.6km/h 45% 0.00in /  0mm 0.0 W/m2 SCT
18:45 79.5 °F /  26.4 °C 55.1 °F /  12.8 °C 29.97in /  1014.8hPa Calm     43% 0.00in /  0mm 0.0 W/m2 SCT
19:00 78.8 °F /  26 °C 56.3 °F /  13.5 °C 29.97in /  1014.8hPa Calm     46% 0.00in /  0mm 0.0 W/m2 SCT
19:15 77.8 °F /  25.4 °C 57.1 °F /  13.9 °C 29.97in /  1014.8hPa Calm     49% 0.00in /  0mm 0.0 W/m2 SCT
19:30 76.8 °F /  24.9 °C 57.3 °F /  14.1 °C 29.96in /  1014.4hPa Calm     51% 0.00in /  0mm 0.0 W/m2 SCT
19:45 75.8 °F /  24.3 °C 56.9 °F /  13.8 °C 29.97in /  1014.8hPa Calm     52% 0.00in /  0mm 0.0 W/m2 SCT
20:00 74.6 °F /  23.7 °C 56.3 °F /  13.5 °C 29.96in /  1014.4hPa Calm     53% 0.00in /  0mm 0.0 W/m2 SCT
20:15 73.5 °F /  23.1 °C 56.8 °F /  13.8 °C 29.97in /  1014.8hPa Calm     56% 0.00in /  0mm 0.0 W/m2 SCT
20:30 72.3 °F /  22.4 °C 56.2 °F /  13.4 °C 29.96in /  1014.4hPa Calm     57% 0.00in /  0mm 0.0 W/m2 SCT
20:45 71.4 °F /  21.9 °C 56.3 °F /  13.5 °C 29.97in /  1014.8hPa Calm     59% 0.00in /  0mm 0.0 W/m2 SCT
21:00 70.9 °F /  21.6 °C 56.3 °F /  13.5 °C 29.97in /  1014.8hPa Calm     60% 0.00in /  0mm 0.0 W/m2 SCT
21:15 69.8 °F /  21 °C 56.6 °F /  13.7 °C 29.97in /  1014.8hPa Calm     63% 0.00in /  0mm 0.0 W/m2 SCT
21:30 69.8 °F /  21 °C 56.2 °F /  13.4 °C 29.97in /  1014.8hPa Calm     62% 0.00in /  0mm 0.0 W/m2 SCT
21:45 69.6 °F /  20.9 °C 56.4 °F /  13.6 °C 29.98in /  1015.1hPa Calm     63% 0.00in /  0mm 0.0 W/m2 SCT
22:00 69.1 °F /  20.6 °C 56.4 °F /  13.6 °C 29.98in /  1015.1hPa Calm     64% 0.00in /  0mm 0.0 W/m2 SCT
22:15 69.2 °F /  20.7 °C 56.9 °F /  13.8 °C 29.99in /  1015.5hPa Calm     65% 0.00in /  0mm 0.0 W/m2 SCT
22:30 69.1 °F /  20.6 °C 56.4 °F /  13.6 °C 29.99in /  1015.5hPa Calm     64% 0.00in /  0mm 0.0 W/m2 SCT
22:45 69.6 °F /  20.9 °C 56.0 °F /  13.3 °C 29.99in /  1015.5hPa Calm     62% 0.00in /  0mm 0.0 W/m2 SCT
23:00 69.8 °F /  21 °C 56.6 °F /  13.7 °C 29.99in /  1015.5hPa Calm     63% 0.00in /  0mm 0.0 W/m2 SCT
23:15 69.4 °F /  20.8 °C 58.0 °F /  14.4 °C 29.99in /  1015.5hPa Calm     67% 0.00in /  0mm 0.0 W/m2 SCT
23:30 68.7 °F /  20.4 °C 58.1 °F /  14.5 °C 29.99in /  1015.5hPa Calm     69% 0.00in /  0mm 0.0 W/m2 SCT
23:45 68.3 °F /  20.2 °C 57.3 °F /  14.1 °C 29.98in /  1015.1hPa Calm     68% 0.00in /  0mm 0.0 W/m2 SCT
Piedmont Bend
Compliments of Weather Underground - 4 mb